Wetterdaten: Woche 10.09.12 - 16.09.12 (KW37)
Datum Zeit Temp. A. Feuchte A. Luftdruck Regen Wind Richtung Taupunkt Windchill Windben
10.09.2012 00:00 14,9 C 82 % 1016,8 hPa 0,0 l/m 0,0 km/h N 11,8 C 14,9 C 0,8 km/h
10.09.2012 01:00 14,6 C 82 % 1016,6 hPa 0,0 l/m 0,0 km/h N 11,6 C 14,6 C 0,0 km/h
10.09.2012 02:00 15,1 C 82 % 1016,4 hPa 0,0 l/m 0,5 km/h N 12,0 C 15,1 C 5,2 km/h
10.09.2012 03:00 16,2 C 77 % 1016,3 hPa 0,0 l/m 0,5 km/h N 12,1 C 16,2 C 4,4 km/h
10.09.2012 04:00 14,9 C 78 % 1016,3 hPa 0,0 l/m 0,0 km/h N 11,1 C 14,9 C 0,4 km/h
10.09.2012 05:00 13,9 C 82 % 1016,4 hPa 0,0 l/m 0,0 km/h N 10,9 C 13,9 C 0,4 km/h
10.09.2012 06:00 13,4 C 82 % 1016,7 hPa 0,0 l/m 0,0 km/h N 10,4 C 13,4 C 0,4 km/h
10.09.2012 07:00 14,2 C 82 % 1017,5 hPa 0,0 l/m 0,5 km/h N 11,1 C 14,2 C 3,2 km/h
10.09.2012 08:00 16,9 C 79 % 1017,6 hPa 0,0 l/m 0,4 km/h N 13,2 C 16,9 C 4,8 km/h
10.09.2012 09:00 20,6 C 68 % 1017,9 hPa 0,0 l/m 0,6 km/h N 14,4 C 20,6 C 5,6 km/h
10.09.2012 10:00 24,3 C 58 % 1018,1 hPa 0,0 l/m 0,7 km/h N 15,4 C 24,3 C 6,0 km/h
10.09.2012 11:00 26,4 C 51 % 1017,7 hPa 0,0 l/m 2,7 km/h N 15,2 C 26,4 C 12,8 km/h
10.09.2012 12:00 28,8 C 42 % 1017,2 hPa 0,0 l/m 4,0 km/h N 14,6 C 28,8 C 13,3 km/h
10.09.2012 13:00 29,7 C 40 % 1016,8 hPa 0,0 l/m 6,7 km/h N 14,6 C 29,7 C 20,5 km/h
10.09.2012 14:00 30,2 C 38 % 1016,4 hPa 0,0 l/m 7,2 km/h N 14,1 C 30,1 C 22,1 km/h
10.09.2012 15:00 29,6 C 38 % 1016,1 hPa 0,0 l/m 7,3 km/h N 13,6 C 29,5 C 19,7 km/h
10.09.2012 16:00 29,1 C 38 % 1015,9 hPa 0,0 l/m 7,3 km/h N 13,4 C 29,0 C 18,9 km/h
10.09.2012 17:00 28,6 C 38 % 1016,0 hPa 0,0 l/m 6,2 km/h N 12,9 C 28,6 C 17,7 km/h
10.09.2012 18:00 27,8 C 40 % 1016,0 hPa 0,0 l/m 4,0 km/h N 12,8 C 27,8 C 14,1 km/h
10.09.2012 19:00 26,2 C 44 % 1016,0 hPa 0,0 l/m 1,0 km/h N 13,0 C 26,2 C 4,0 km/h
10.09.2012 20:00 22,1 C 56 % 1016,4 hPa 0,0 l/m 0,0 km/h N 12,8 C 22,1 C 0,0 km/h
10.09.2012 21:00 19,0 C 67 % 1016,5 hPa 0,0 l/m 0,0 km/h N 12,8 C 19,0 C 0,0 km/h
10.09.2012 22:00 17,3 C 75 % 1016,6 hPa 0,0 l/m 0,0 km/h N 12,9 C 17,3 C 0,4 km/h
10.09.2012 23:00 16,3 C 79 % 1016,5 hPa 0,0 l/m 0,0 km/h N 12,6 C 16,3 C 0,0 km/h
11.09.2012 00:00 15,4 C 81 % 1016,4 hPa 0,0 l/m 0,0 km/h N 12,1 C 15,4 C 0,0 km/h
11.09.2012 01:00 14,7 C 82 % 1016,2 hPa 0,0 l/m 0,0 km/h N 11,6 C 14,7 C 0,0 km/h
11.09.2012 02:00 14,0 C 82 % 1015,8 hPa 0,0 l/m 0,0 km/h N 11,0 C 14,0 C 0,0 km/h
11.09.2012 03:00 13,6 C 81 % 1015,9 hPa 0,0 l/m 0,0 km/h N 10,4 C 13,6 C 0,0 km/h
11.09.2012 04:00 13,3 C 81 % 1016,0 hPa 0,0 l/m 0,0 km/h N 10,1 C 13,3 C 0,0 km/h
11.09.2012 05:00 13,2 C 80 % 1016,2 hPa 0,0 l/m 0,0 km/h N 9,9 C 13,2 C 1,2 km/h
11.09.2012 06:00 13,1 C 80 % 1016,4 hPa 0,0 l/m 0,0 km/h N 9,7 C 13,1 C 0,0 km/h
11.09.2012 07:00 13,5 C 78 % 1016,7 hPa 0,0 l/m 0,0 km/h N 9,8 C 13,5 C 0,0 km/h
11.09.2012 08:00 15,4 C 76 % 1016,5 hPa 0,0 l/m 0,1 km/h N 11,0 C 15,4 C 2,0 km/h
11.09.2012 09:00 18,5 C 78 % 1016,3 hPa 0,0 l/m 0,6 km/h N 14,6 C 18,5 C 6,0 km/h
11.09.2012 10:00 23,2 C 64 % 1015,7 hPa 0,0 l/m 1,5 km/h N 15,9 C 23,2 C 8,0 km/h
11.09.2012 11:00 25,9 C 55 % 1015,0 hPa 0,0 l/m 2,5 km/h N 16,0 C 25,9 C 11,3 km/h
11.09.2012 12:00 27,6 C 49 % 1014,3 hPa 0,0 l/m 4,8 km/h N 15,8 C 27,6 C 15,3 km/h
11.09.2012 13:00 29,7 C 42 % 1013,6 hPa 0,0 l/m 5,7 km/h N 15,2 C 29,6 C 18,5 km/h
11.09.2012 14:00 30,7 C 37 % 1012,6 hPa 0,0 l/m 6,4 km/h N 14,3 C 30,7 C 19,3 km/h
11.09.2012 15:00 30,6 C 37 % 1011,8 hPa 0,0 l/m 5,1 km/h N 14,0 C 30,6 C 15,7 km/h
11.09.2012 16:00 29,9 C 38 % 1011,3 hPa 0,0 l/m 3,4 km/h N 13,9 C 29,9 C 10,9 km/h
11.09.2012 17:00 29,6 C 39 % 1011,0 hPa 0,0 l/m 4,1 km/h N 14,2 C 29,6 C 12,9 km/h
11.09.2012 18:00 28,5 C 43 % 1010,8 hPa 0,0 l/m 1,9 km/h N 14,8 C 28,5 C 8,1 km/h
11.09.2012 19:00 25,8 C 51 % 1011,1 hPa 0,0 l/m 0,2 km/h N 14,8 C 25,8 C 3,6 km/h
11.09.2012 20:00 24,0 C 53 % 1011,2 hPa 0,0 l/m 0,3 km/h N 13,8 C 24,0 C 4,0 km/h
11.09.2012 21:00 22,8 C 50 % 1011,2 hPa 0,0 l/m 0,3 km/h N 11,9 C 22,8 C 4,4 km/h
11.09.2012 22:00 19,7 C 61 % 1011,0 hPa 0,0 l/m 0,0 km/h N 11,8 C 19,7 C 1,2 km/h
11.09.2012 23:00 17,5 C 68 % 1010,6 hPa 0,0 l/m 0,0 km/h N 11,5 C 17,5 C 0,0 km/h
12.09.2012 00:00 16,2 C 74 % 1010,3 hPa 0,0 l/m 0,0 km/h N 11,5 C 16,2 C 0,4 km/h
12.09.2012 01:00 17,4 C 73 % 1010,5 hPa 0,0 l/m 2,6 km/h N 12,3 C 17,2 C 11,3 km/h
12.09.2012 02:00 20,1 C 69 % 1010,6 hPa 0,0 l/m 8,2 km/h N 14,1 C 19,4 C 31,4 km/h
12.09.2012 03:00 19,8 C 68 % 1010,5 hPa 0,0 l/m 4,5 km/h N 13,7 C 19,6 C 20,1 km/h
12.09.2012 04:00 19,6 C 67 % 1010,2 hPa 0,0 l/m 3,7 km/h N 13,3 C 19,6 C 16,1 km/h
12.09.2012 05:00 19,2 C 68 % 1009,8 hPa 0,0 l/m 1,3 km/h N 13,2 C 19,2 C 5,6 km/h
12.09.2012 06:00 18,1 C 73 % 1010,0 hPa 0,0 l/m 0,0 km/h N 13,1 C 18,1 C 0,0 km/h
12.09.2012 07:00 17,3 C 78 % 1010,5 hPa 0,0 l/m 0,0 km/h N 13,5 C 17,3 C 0,8 km/h
12.09.2012 08:00 17,9 C 80 % 1010,7 hPa 0,0 l/m 0,0 km/h N 14,3 C 17,9 C 0,4 km/h
12.09.2012 09:00 19,9 C 73 % 1010,6 hPa 0,0 l/m 0,1 km/h N 14,9 C 19,9 C 2,0 km/h
12.09.2012 10:00 21,0 C 70 % 1010,3 hPa 0,0 l/m 0,6 km/h N 15,3 C 21,0 C 5,2 km/h
12.09.2012 11:00 21,6 C 68 % 1009,9 hPa 0,0 l/m 6,1 km/h N 15,5 C 21,5 C 14,1 km/h
12.09.2012 12:00 22,8 C 63 % 1009,3 hPa 0,0 l/m 7,4 km/h N 15,3 C 22,4 C 20,1 km/h
12.09.2012 13:00 22,5 C 63 % 1008,6 hPa 0,0 l/m 8,8 km/h N 15,0 C 21,8 C 19,7 km/h
12.09.2012 14:00 21,4 C 63 % 1008,2 hPa 0,0 l/m 8,4 km/h N 14,0 C 20,7 C 24,1 km/h
12.09.2012 15:00 18,9 C 74 % 1008,5 hPa 0,3 l/m 8,4 km/h N 14,0 C 18,1 C 27,3 km/h
12.09.2012 16:00 17,1 C 81 % 1008,2 hPa 0,5 l/m 4,1 km/h N 13,8 C 17,1 C 15,3 km/h
12.09.2012 17:00 15,9 C 82 % 1008,3 hPa 3,9 l/m 11,0 km/h N 12,7 C 13,9 C 29,3 km/h
12.09.2012 18:00 14,1 C 82 % 1009,1 hPa 1,8 l/m 11,8 km/h N 11,1 C 11,5 C 27,7 km/h
12.09.2012 19:00 13,8 C 82 % 1009,5 hPa 3,1 l/m 7,4 km/h N 10,7 C 12,9 C 21,3 km/h
12.09.2012 20:00 13,3 C 81 % 1009,6 hPa 3,6 l/m 5,7 km/h N 10,2 C 13,2 C 16,9 km/h
12.09.2012 21:00 12,8 C 82 % 1009,9 hPa 5,2 l/m 8,2 km/h N 9,7 C 11,7 C 21,7 km/h
12.09.2012 22:00 12,2 C 82 % 1009,5 hPa 1,6 l/m 10,3 km/h N 9,1 C 9,9 C 25,4 km/h
12.09.2012 23:00 11,2 C 83 % 1009,4 hPa 1,6 l/m 13,5 km/h N 8,4 C 7,3 C 30,2 km/h
13.09.2012 00:00 10,7 C 82 % 1009,7 hPa 1,8 l/m 10,4 km/h N 7,8 C 8,1 C 26,5 km/h
13.09.2012 01:00 10,1 C 83 % 1009,3 hPa 3,1 l/m 12,7 km/h N 7,4 C 6,3 C 31,4 km/h
13.09.2012 02:00 9,6 C 83 % 1009,0 hPa 1,6 l/m 14,4 km/h N 6,9 C 4,9 C 34,2 km/h
13.09.2012 03:00 9,2 C 83 % 1009,0 hPa 1,0 l/m 14,4 km/h N 6,4 C 4,4 C 33,0 km/h
13.09.2012 04:00 8,8 C 83 % 1009,0 hPa 1,8 l/m 12,2 km/h N 6,1 C 5,0 C 27,3 km/h
13.09.2012 05:00 8,8 C 83 % 1008,9 hPa 0,8 l/m 12,6 km/h N 6,1 C 4,9 C 28,2 km/h
13.09.2012 06:00 8,8 C 83 % 1009,6 hPa 0,0 l/m 11,6 km/h N 6,1 C 5,4 C 29,8 km/h
13.09.2012 07:00 8,9 C 83 % 1010,1 hPa 0,0 l/m 10,1 km/h N 6,1 C 6,3 C 22,9 km/h
13.09.2012 08:00 9,4 C 83 % 1010,3 hPa 0,0 l/m 12,3 km/h N 6,6 C 5,6 C 24,1 km/h
13.09.2012 09:00 9,7 C 83 % 1010,8 hPa 0,0 l/m 10,1 km/h N 7,0 C 7,2 C 23,7 km/h
13.09.2012 10:00 10,2 C 83 % 1011,0 hPa 0,0 l/m 10,4 km/h N 7,4 C 7,7 C 27,4 km/h
13.09.2012 11:00 10,3 C 82 % 1011,5 hPa 0,0 l/m 11,8 km/h N 7,3 C 7,0 C 28,2 km/h
13.09.2012 12:00 10,7 C 81 % 1011,9 hPa 0,0 l/m 9,3 km/h N 7,5 C 8,8 C 23,3 km/h
13.09.2012 13:00 11,3 C 80 % 1012,1 hPa 0,0 l/m 10,6 km/h N 8,0 C 8,7 C 24,5 km/h
13.09.2012 14:00 11,7 C 80 % 1012,4 hPa 0,0 l/m 9,7 km/h N 8,4 C 9,7 C 27,4 km/h
13.09.2012 15:00 11,1 C 83 % 1012,7 hPa 1,0 l/m 6,3 km/h N 8,3 C 11,0 C 20,1 km/h
13.09.2012 16:00 11,2 C 83 % 1012,7 hPa 0,0 l/m 11,3 km/h N 8,4 C 8,2 C 25,8 km/h
13.09.2012 17:00 11,5 C 83 % 1013,3 hPa 0,3 l/m 8,8 km/h N 8,7 C 10,0 C 23,4 km/h
13.09.2012 18:00 11,7 C 83 % 1013,6 hPa 0,3 l/m 5,4 km/h N 8,9 C 11,7 C 15,7 km/h
13.09.2012 19:00 11,7 C 83 % 1014,1 hPa 0,0 l/m 8,6 km/h N 8,9 C 10,3 C 20,5 km/h
13.09.2012 20:00 11,6 C 83 % 1014,8 hPa 0,0 l/m 6,8 km/h N 8,9 C 11,4 C 19,7 km/h
13.09.2012 21:00 11,7 C 82 % 1015,5 hPa 0,0 l/m 7,4 km/h N 8,8 C 11,0 C 18,9 km/h
13.09.2012 22:00 11,8 C 81 % 1015,8 hPa 0,0 l/m 8,8 km/h N 8,6 C 10,3 C 21,7 km/h
13.09.2012 23:00 11,9 C 79 % 1016,2 hPa 0,0 l/m 10,1 km/h N 8,4 C 9,7 C 21,7 km/h
14.09.2012 00:00 11,9 C 81 % 1016,2 hPa 0,0 l/m 8,4 km/h N 8,7 C 10,7 C 20,5 km/h
14.09.2012 01:00 11,9 C 81 % 1016,1 hPa 0,0 l/m 8,7 km/h N 8,7 C 10,5 C 21,7 km/h
14.09.2012 02:00 12,0 C 79 % 1016,1 hPa 0,0 l/m 10,9 km/h N 8,4 C 9,3 C 27,0 km/h
14.09.2012 03:00 11,8 C 78 % 1016,1 hPa 0,0 l/m 12,5 km/h N 8,2 C 8,4 C 28,2 km/h
14.09.2012 04:00 11,7 C 78 % 1016,4 hPa 0,0 l/m 11,4 km/h N 8,0 C 8,8 C 29,4 km/h
14.09.2012 05:00 11,5 C 78 % 1016,8 hPa 0,0 l/m 9,9 km/h N 7,9 C 9,4 C 23,7 km/h
14.09.2012 06:00 11,4 C 78 % 1016,5 hPa 0,0 l/m 9,9 km/h N 7,7 C 9,3 C 23,4 km/h
14.09.2012 07:00 11,4 C 79 % 1016,7 hPa 0,0 l/m 7,7 km/h N 7,8 C 10,6 C 20,9 km/h
14.09.2012 08:00 11,8 C 76 % 1016,8 hPa 0,0 l/m 10,2 km/h N 7,7 C 9,6 C 24,1 km/h
14.09.2012 09:00 12,6 C 74 % 1016,8 hPa 0,0 l/m 10,1 km/h N 8,1 C 10,4 C 26,5 km/h
14.09.2012 10:00 13,8 C 71 % 1016,9 hPa 0,0 l/m 11,1 km/h N 8,7 C 11,4 C 26,5 km/h
14.09.2012 11:00 14,1 C 70 % 1016,9 hPa 0,0 l/m 10,6 km/h N 8,7 C 11,8 C 26,9 km/h
14.09.2012 12:00 14,2 C 68 % 1016,5 hPa 0,0 l/m 10,1 km/h N 8,4 C 12,2 C 24,9 km/h
14.09.2012 13:00 14,7 C 66 % 1015,8 hPa 0,0 l/m 8,7 km/h N 8,5 C 13,4 C 23,7 km/h
14.09.2012 14:00 15,9 C 61 % 1015,0 hPa 0,0 l/m 8,1 km/h N 8,4 C 15,0 C 19,7 km/h
14.09.2012 15:00 16,7 C 58 % 1013,8 hPa 0,0 l/m 9,3 km/h N 8,3 C 15,3 C 20,9 km/h
14.09.2012 16:00 16,9 C 56 % 1013,0 hPa 0,0 l/m 8,2 km/h N 8,1 C 16,0 C 23,3 km/h
14.09.2012 17:00 16,9 C 55 % 1012,6 hPa 0,0 l/m 6,8 km/h N 7,8 C 16,7 C 18,5 km/h
14.09.2012 18:00 16,5 C 57 % 1012,4 hPa 0,0 l/m 5,3 km/h N 7,9 C 16,5 C 14,1 km/h
14.09.2012 19:00 15,3 C 58 % 1012,4 hPa 0,0 l/m 3,2 km/h N 7,0 C 15,3 C 12,5 km/h
14.09.2012 20:00 14,8 C 60 % 1012,8 hPa 0,0 l/m 2,7 km/h N 7,0 C 14,8 C 12,5 km/h
14.09.2012 21:00 15,0 C 60 % 1013,1 hPa 0,0 l/m 2,2 km/h N 7,3 C 15,0 C 12,1 km/h
14.09.2012 22:00 14,4 C 64 % 1012,8 hPa 0,0 l/m 0,5 km/h N 7,7 C 14,4 C 6,4 km/h
14.09.2012 23:00 13,6 C 68 % 1012,4 hPa 0,0 l/m 0,0 km/h N 7,8 C 13,6 C 1,6 km/h
15.09.2012 00:00 12,4 C 72 % 1012,3 hPa 0,0 l/m 0,2 km/h N 7,5 C 12,4 C 3,6 km/h
15.09.2012 01:00 13,1 C 68 % 1012,5 hPa 0,0 l/m 1,3 km/h N 7,2 C 13,1 C 8,1 km/h
15.09.2012 02:00 14,6 C 61 % 1012,2 hPa 0,0 l/m 7,3 km/h N 7,1 C 14,1 C 21,7 km/h
15.09.2012 03:00 15,4 C 58 % 1011,9 hPa 0,0 l/m 9,4 km/h N 7,0 C 13,8 C 25,3 km/h
15.09.2012 04:00 15,3 C 57 % 1011,6 hPa 0,0 l/m 8,3 km/h N 6,9 C 14,3 C 25,4 km/h
15.09.2012 05:00 15,1 C 59 % 1011,7 hPa 0,0 l/m 9,4 km/h N 7,1 C 13,7 C 28,6 km/h
15.09.2012 06:00 14,9 C 61 % 1012,4 hPa 0,0 l/m 10,7 km/h N 7,4 C 12,7 C 29,8 km/h
15.09.2012 07:00 14,9 C 64 % 1013,0 hPa 0,0 l/m 8,4 km/h N 8,0 C 13,7 C 22,1 km/h
15.09.2012 08:00 15,1 C 66 % 1013,7 hPa 0,0 l/m 3,9 km/h N 8,8 C 15,0 C 14,5 km/h
15.09.2012 09:00 16,3 C 66 % 1014,2 hPa 0,0 l/m 11,2 km/h N 9,9 C 14,1 C 26,9 km/h
15.09.2012 10:00 17,0 C 63 % 1014,8 hPa 0,0 l/m 13,3 km/h N 9,8 C 14,1 C 30,6 km/h
15.09.2012 11:00 18,1 C 61 % 1015,0 hPa 0,0 l/m 11,6 km/h N 10,5 C 16,0 C 27,0 km/h
15.09.2012 12:00 18,6 C 61 % 1015,0 hPa 0,0 l/m 11,2 km/h N 10,9 C 16,8 C 27,4 km/h
15.09.2012 13:00 17,9 C 64 % 1015,0 hPa 0,0 l/m 9,4 km/h N 10,9 C 16,6 C 25,8 km/h
15.09.2012 14:00 18,2 C 65 % 1014,9 hPa 0,0 l/m 5,5 km/h N 11,5 C 18,0 C 21,7 km/h
15.09.2012 15:00 17,8 C 65 % 1015,0 hPa 0,0 l/m 7,4 km/h N 11,1 C 17,3 C 24,1 km/h
15.09.2012 16:00 17,5 C 67 % 1015,1 hPa 0,0 l/m 10,0 km/h N 11,2 C 15,9 C 25,3 km/h
15.09.2012 17:00 17,2 C 69 % 1015,5 hPa 0,0 l/m 8,1 km/h N 11,4 C 16,4 C 20,5 km/h
15.09.2012 18:00 16,9 C 71 % 1016,1 hPa 0,0 l/m 5,4 km/h N 11,5 C 16,7 C 16,5 km/h
15.09.2012 19:00 16,5 C 66 % 1017,0 hPa 0,0 l/m 3,4 km/h N 9,9 C 16,5 C 10,4 km/h
15.09.2012 20:00 16,0 C 62 % 1017,8 hPa 0,0 l/m 2,3 km/h N 8,7 C 16,0 C 9,7 km/h
15.09.2012 21:00 15,4 C 65 % 1018,3 hPa 0,0 l/m 0,6 km/h N 8,8 C 15,4 C 5,6 km/h
15.09.2012 22:00 14,9 C 66 % 1018,6 hPa 0,0 l/m 1,7 km/h N 8,5 C 14,9 C 7,6 km/h
15.09.2012 23:00 14,3 C 69 % 1018,8 hPa 0,0 l/m 0,9 km/h N 8,7 C 14,3 C 6,0 km/h
16.09.2012 00:00 13,9 C 72 % 1018,7 hPa 0,0 l/m 1,9 km/h N 9,0 C 13,9 C 8,1 km/h
16.09.2012 01:00 13,5 C 75 % 1018,8 hPa 0,0 l/m 0,7 km/h N 9,0 C 13,5 C 6,0 km/h
16.09.2012 02:00 12,6 C 76 % 1018,9 hPa 0,0 l/m 0,5 km/h N 8,4 C 12,6 C 4,8 km/h
16.09.2012 03:00 11,3 C 80 % 1018,9 hPa 0,0 l/m 0,0 km/h N 7,9 C 11,3 C 1,2 km/h
16.09.2012 04:00 10,5 C 82 % 1019,1 hPa 0,0 l/m 0,0 km/h N 7,5 C 10,5 C 0,0 km/h
16.09.2012 05:00 10,5 C 83 % 1019,3 hPa 0,0 l/m 0,0 km/h N 7,7 C 10,5 C 0,0 km/h
16.09.2012 06:00 11,4 C 82 % 1019,5 hPa 0,0 l/m 0,0 km/h N 8,4 C 11,4 C 0,8 km/h
16.09.2012 07:00 12,1 C 83 % 1019,4 hPa 0,0 l/m 0,2 km/h N 9,3 C 12,1 C 1,6 km/h
16.09.2012 08:00 14,4 C 76 % 1019,4 hPa 0,0 l/m 2,4 km/h N 10,1 C 14,4 C 8,9 km/h
16.09.2012 09:00 16,2 C 67 % 1019,5 hPa 0,0 l/m 2,6 km/h N 10,1 C 16,2 C 8,4 km/h
16.09.2012 10:00 18,3 C 61 % 1019,4 hPa 0,0 l/m 1,7 km/h N 10,7 C 18,3 C 8,9 km/h
16.09.2012 11:00 19,4 C 60 % 1019,2 hPa 0,0 l/m 1,2 km/h N 11,3 C 19,4 C 6,8 km/h
16.09.2012 12:00 19,8 C 55 % 1018,8 hPa 0,0 l/m 1,8 km/h N 10,5 C 19,8 C 8,4 km/h
16.09.2012 13:00 20,5 C 47 % 1018,4 hPa 0,0 l/m 2,1 km/h N 8,9 C 20,5 C 10,5 km/h
16.09.2012 14:00 20,0 C 49 % 1017,9 hPa 0,0 l/m 1,7 km/h N 8,9 C 20,0 C 8,4 km/h
16.09.2012 15:00 20,2 C 48 % 1017,5 hPa 0,0 l/m 2,4 km/h N 8,8 C 20,2 C 8,9 km/h
16.09.2012 16:00 19,9 C 49 % 1017,1 hPa 0,0 l/m 2,7 km/h N 8,7 C 19,9 C 8,9 km/h
16.09.2012 17:00 19,5 C 50 % 1016,8 hPa 0,0 l/m 2,1 km/h N 8,8 C 19,5 C 9,7 km/h
16.09.2012 18:00 19,0 C 51 % 1016,5 hPa 0,0 l/m 2,3 km/h N 8,7 C 19,0 C 8,9 km/h
16.09.2012 19:00 17,5 C 58 % 1016,6 hPa 0,0 l/m 0,1 km/h N 9,1 C 17,5 C 3,2 km/h
16.09.2012 20:00 14,6 C 68 % 1016,8 hPa 0,0 l/m 0,0 km/h N 8,6 C 14,6 C 0,0 km/h
16.09.2012 21:00 12,4 C 76 % 1016,7 hPa 0,0 l/m 0,0 km/h N 8,3 C 12,4 C 0,0 km/h
16.09.2012 22:00 11,9 C 81 % 1016,4 hPa 0,0 l/m 0,2 km/h N 8,8 C 11,9 C 3,6 km/h
16.09.2012 23:00 12,2 C 80 % 1016,3 hPa 0,0 l/m 0,0 km/h N 8,9 C 12,2 C 0,4 km/h
Min-Datum _ 13.09.12 11.09.12 12.09.12 - 10.09.12 - 13.09.12 13.09.12 10.09.12
_ Min-Zeit 04:30 14:30 16:45 - 00:00 - 04:30 05:15 00:00
Minimum _ 8,7 C 36 % 1007,9 hPa - 0,0 km/h - 6,0 C 4,0 C 0,0 km/h
Max-Datum _ 11.09.12 12.09.12 16.09.12 12.09.12 12.09.12 - 11.09.12 11.09.12 12.09.12
_ Max-Zeit 14:45 23:00 06:45 21:15 18:30 - 10:45 14:45 17:30
Maximum _ 31,0 C 83 % 1019,6 hPa 5,2 l/m 16,9 km/h
N
- 16,6 C 31,0 C 40,2 km/h
N
Durchschnitt _ 16,6 C 69 % 1014,3 hPa #33,3 l/m 5,0 km/h N 10,3 C 15,8 C 14,2 km/h